sensor_id;sensor_type;location;lat;lon;timestamp;pressure;altitude;pressure_sealevel;temperature;humidity
19114;BME280;9689;51.052;13.772;2023-09-07T00:03:49;101044.59;;;16.67;81.84
19114;BME280;9689;51.052;13.772;2023-09-07T00:08:51;101052.50;;;16.67;81.48
19114;BME280;9689;51.052;13.772;2023-09-07T00:13:52;101057.06;;;16.62;82.38
19114;BME280;9689;51.052;13.772;2023-09-07T00:18:53;101058.16;;;16.55;81.93
19114;BME280;9689;51.052;13.772;2023-09-07T00:23:55;101059.34;;;16.47;82.86
19114;BME280;9689;51.052;13.772;2023-09-07T00:28:56;101058.91;;;16.32;83.23
19114;BME280;9689;51.052;13.772;2023-09-07T00:33:57;101063.13;;;16.10;84.54
19114;BME280;9689;51.052;13.772;2023-09-07T00:38:59;101066.63;;;16.10;84.49
19114;BME280;9689;51.052;13.772;2023-09-07T00:44:00;101063.25;;;16.05;84.05
19114;BME280;9689;51.052;13.772;2023-09-07T00:49:01;101068.63;;;16.02;84.48
19114;BME280;9689;51.052;13.772;2023-09-07T00:54:05;101063.75;;;15.89;84.91
19114;BME280;9689;51.052;13.772;2023-09-07T00:59:07;101059.41;;;15.88;85.17
19114;BME280;9689;51.052;13.772;2023-09-07T01:04:08;101054.59;;;15.72;85.90
19114;BME280;9689;51.052;13.772;2023-09-07T01:09:15;101053.84;;;15.69;86.62
19114;BME280;9689;51.052;13.772;2023-09-07T01:14:17;101049.66;;;15.62;87.00
19114;BME280;9689;51.052;13.772;2023-09-07T01:19:18;101059.44;;;15.57;86.97
19114;BME280;9689;51.052;13.772;2023-09-07T01:24:20;101044.41;;;15.60;86.80
19114;BME280;9689;51.052;13.772;2023-09-07T01:29:23;101053.56;;;15.47;87.72
19114;BME280;9689;51.052;13.772;2023-09-07T01:34:24;101050.94;;;15.47;87.88
19114;BME280;9689;51.052;13.772;2023-09-07T01:39:27;101052.81;;;15.42;87.64
19114;BME280;9689;51.052;13.772;2023-09-07T01:44:28;101060.50;;;15.49;87.16
19114;BME280;9689;51.052;13.772;2023-09-07T01:49:29;101053.25;;;15.58;86.04
19114;BME280;9689;51.052;13.772;2023-09-07T01:54:32;101057.00;;;15.49;85.97
19114;BME280;9689;51.052;13.772;2023-09-07T01:59:33;101056.38;;;15.41;86.62
19114;BME280;9689;51.052;13.772;2023-09-07T02:04:34;101051.44;;;15.28;87.17
19114;BME280;9689;51.052;13.772;2023-09-07T02:09:36;101052.38;;;15.26;87.47
19114;BME280;9689;51.052;13.772;2023-09-07T02:14:37;101054.28;;;15.21;87.55
19114;BME280;9689;51.052;13.772;2023-09-07T02:19:39;101050.16;;;15.12;87.60
19114;BME280;9689;51.052;13.772;2023-09-07T02:24:41;101048.41;;;15.11;87.86
19114;BME280;9689;51.052;13.772;2023-09-07T02:29:42;101039.00;;;15.03;87.62
19114;BME280;9689;51.052;13.772;2023-09-07T02:34:43;101045.44;;;14.91;88.24
19114;BME280;9689;51.052;13.772;2023-09-07T02:39:46;101043.72;;;14.90;88.66
19114;BME280;9689;51.052;13.772;2023-09-07T02:44:48;101046.50;;;14.84;88.52
19114;BME280;9689;51.052;13.772;2023-09-07T02:49:48;101050.88;;;14.83;88.55
19114;BME280;9689;51.052;13.772;2023-09-07T02:54:51;101055.38;;;14.80;88.57
19114;BME280;9689;51.052;13.772;2023-09-07T02:59:52;101054.47;;;14.81;88.44
19114;BME280;9689;51.052;13.772;2023-09-07T03:04:54;101061.44;;;14.82;87.92
19114;BME280;9689;51.052;13.772;2023-09-07T03:10:00;101059.00;;;14.74;88.54
19114;BME280;9689;51.052;13.772;2023-09-07T03:15:01;101055.56;;;14.72;88.24
19114;BME280;9689;51.052;13.772;2023-09-07T03:20:04;101048.66;;;14.68;88.46
19114;BME280;9689;51.052;13.772;2023-09-07T03:25:17;101048.63;;;14.69;88.23
19114;BME280;9689;51.052;13.772;2023-09-07T03:30:18;101050.50;;;14.64;88.51
19114;BME280;9689;51.052;13.772;2023-09-07T03:35:20;101047.47;;;14.44;89.43
19114;BME280;9689;51.052;13.772;2023-09-07T03:40:22;101050.00;;;14.49;88.78
19114;BME280;9689;51.052;13.772;2023-09-07T03:45:23;101072.03;;;14.40;89.37
19114;BME280;9689;51.052;13.772;2023-09-07T03:50:24;101067.91;;;14.30;89.72
19114;BME280;9689;51.052;13.772;2023-09-07T03:55:27;101068.72;;;14.32;90.10
19114;BME280;9689;51.052;13.772;2023-09-07T04:00:28;101068.16;;;14.19;90.33
19114;BME280;9689;51.052;13.772;2023-09-07T04:05:29;101064.69;;;14.19;90.37
19114;BME280;9689;51.052;13.772;2023-09-07T04:10:31;101064.59;;;14.22;90.15
19114;BME280;9689;51.052;13.772;2023-09-07T04:15:33;101067.44;;;14.12;90.66
19114;BME280;9689;51.052;13.772;2023-09-07T04:20:33;101067.34;;;14.15;90.53
19114;BME280;9689;51.052;13.772;2023-09-07T04:25:36;101066.34;;;14.21;89.77
19114;BME280;9689;51.052;13.772;2023-09-07T04:30:39;101066.31;;;14.23;90.19
19114;BME280;9689;51.052;13.772;2023-09-07T04:35:40;101064.53;;;14.25;90.87
19114;BME280;9689;51.052;13.772;2023-09-07T04:40:42;101071.75;;;14.13;90.85
19114;BME280;9689;51.052;13.772;2023-09-07T04:45:46;101070.09;;;14.11;91.38
19114;BME280;9689;51.052;13.772;2023-09-07T04:50:47;101073.59;;;14.10;91.34
19114;BME280;9689;51.052;13.772;2023-09-07T04:55:49;101080.56;;;14.11;91.30
19114;BME280;9689;51.052;13.772;2023-09-07T05:00:51;101076.19;;;14.11;91.73
19114;BME280;9689;51.052;13.772;2023-09-07T05:05:53;101078.66;;;14.19;91.08
19114;BME280;9689;51.052;13.772;2023-09-07T05:10:57;101087.16;;;14.29;90.92
19114;BME280;9689;51.052;13.772;2023-09-07T05:15:59;101081.56;;;14.46;90.14
19114;BME280;9689;51.052;13.772;2023-09-07T05:21:01;101084.69;;;14.61;89.65
19114;BME280;9689;51.052;13.772;2023-09-07T05:26:03;101085.41;;;14.66;89.21
19114;BME280;9689;51.052;13.772;2023-09-07T05:31:04;101090.38;;;14.79;88.68
19114;BME280;9689;51.052;13.772;2023-09-07T05:36:05;101096.06;;;14.96;87.65
19114;BME280;9689;51.052;13.772;2023-09-07T05:41:09;101099.13;;;15.13;86.46
19114;BME280;9689;51.052;13.772;2023-09-07T05:46:10;101101.56;;;15.21;85.95
19114;BME280;9689;51.052;13.772;2023-09-07T05:51:11;101096.06;;;15.28;85.30
19114;BME280;9689;51.052;13.772;2023-09-07T05:56:13;101108.03;;;15.40;84.43
19114;BME280;9689;51.052;13.772;2023-09-07T06:01:14;101102.69;;;15.43;83.92
19114;BME280;9689;51.052;13.772;2023-09-07T06:06:15;101108.53;;;15.53;83.09
19114;BME280;9689;51.052;13.772;2023-09-07T06:11:18;101108.91;;;15.73;82.04
19114;BME280;9689;51.052;13.772;2023-09-07T06:16:19;101105.59;;;15.96;80.96
19114;BME280;9689;51.052;13.772;2023-09-07T06:21:20;101106.91;;;16.11;80.40
19114;BME280;9689;51.052;13.772;2023-09-07T06:26:22;101103.72;;;16.29;79.67
19114;BME280;9689;51.052;13.772;2023-09-07T06:31:23;101097.94;;;16.46;78.28
19114;BME280;9689;51.052;13.772;2023-09-07T06:36:24;101095.94;;;16.54;78.39
19114;BME280;9689;51.052;13.772;2023-09-07T06:41:46;101104.00;;;16.76;77.82
19114;BME280;9689;51.052;13.772;2023-09-07T06:46:49;101100.81;;;16.93;77.19
19114;BME280;9689;51.052;13.772;2023-09-07T06:51:52;101102.78;;;17.13;76.61
19114;BME280;9689;51.052;13.772;2023-09-07T06:56:55;101101.88;;;17.39;75.67
19114;BME280;9689;51.052;13.772;2023-09-07T07:01:56;101098.66;;;17.56;74.90
19114;BME280;9689;51.052;13.772;2023-09-07T07:06:59;101101.97;;;17.86;73.70
19114;BME280;9689;51.052;13.772;2023-09-07T07:12:03;101107.16;;;18.11;72.75
19114;BME280;9689;51.052;13.772;2023-09-07T07:17:04;101106.38;;;18.30;72.22
19114;BME280;9689;51.052;13.772;2023-09-07T07:22:06;101102.66;;;18.58;70.98
19114;BME280;9689;51.052;13.772;2023-09-07T07:27:09;101096.53;;;18.79;69.80
19114;BME280;9689;51.052;13.772;2023-09-07T07:32:12;101106.13;;;19.02;69.17
19114;BME280;9689;51.052;13.772;2023-09-07T07:37:14;101097.47;;;19.19;68.94
19114;BME280;9689;51.052;13.772;2023-09-07T07:42:16;101093.94;;;19.40;67.35
19114;BME280;9689;51.052;13.772;2023-09-07T07:47:18;101098.41;;;19.59;67.44
19114;BME280;9689;51.052;13.772;2023-09-07T07:52:19;101098.28;;;19.81;66.60
19114;BME280;9689;51.052;13.772;2023-09-07T07:57:23;101090.25;;;20.02;65.96
19114;BME280;9689;51.052;13.772;2023-09-07T08:02:24;101089.16;;;20.25;65.04
19114;BME280;9689;51.052;13.772;2023-09-07T08:07:25;101091.75;;;20.46;64.49
19114;BME280;9689;51.052;13.772;2023-09-07T08:12:28;101081.81;;;20.68;62.68
19114;BME280;9689;51.052;13.772;2023-09-07T08:17:29;101079.03;;;20.88;61.41
19114;BME280;9689;51.052;13.772;2023-09-07T08:22:31;101077.88;;;21.11;60.28
19114;BME280;9689;51.052;13.772;2023-09-07T08:27:36;101066.63;;;21.24;59.58
19114;BME280;9689;51.052;13.772;2023-09-07T08:32:37;101062.00;;;21.44;58.07
19114;BME280;9689;51.052;13.772;2023-09-07T08:37:38;101054.94;;;21.61;57.93
19114;BME280;9689;51.052;13.772;2023-09-07T08:42:41;101060.94;;;21.80;57.24
19114;BME280;9689;51.052;13.772;2023-09-07T08:47:43;101061.69;;;21.99;56.31
19114;BME280;9689;51.052;13.772;2023-09-07T08:52:46;101065.91;;;22.19;55.26
19114;BME280;9689;51.052;13.772;2023-09-07T08:57:52;101061.59;;;22.33;54.78
19114;BME280;9689;51.052;13.772;2023-09-07T09:02:53;101054.97;;;22.55;53.96
19114;BME280;9689;51.052;13.772;2023-09-07T09:08:02;101054.94;;;22.71;54.04
19114;BME280;9689;51.052;13.772;2023-09-07T09:13:05;101055.94;;;22.84;53.80
19114;BME280;9689;51.052;13.772;2023-09-07T09:18:10;101054.28;;;22.98;53.83
19114;BME280;9689;51.052;13.772;2023-09-07T09:23:14;101057.84;;;23.12;52.64
19114;BME280;9689;51.052;13.772;2023-09-07T09:28:19;101060.44;;;23.28;51.99
19114;BME280;9689;51.052;13.772;2023-09-07T09:33:21;101057.38;;;23.49;50.88
19114;BME280;9689;51.052;13.772;2023-09-07T09:38:22;101042.31;;;23.63;50.03
19114;BME280;9689;51.052;13.772;2023-09-07T09:43:25;101044.47;;;23.85;49.28
19114;BME280;9689;51.052;13.772;2023-09-07T09:48:27;101037.22;;;24.02;48.64
19114;BME280;9689;51.052;13.772;2023-09-07T09:53:28;101043.84;;;24.09;48.55
19114;BME280;9689;51.052;13.772;2023-09-07T09:58:33;101028.47;;;24.27;47.85
19114;BME280;9689;51.052;13.772;2023-09-07T10:03:37;101032.06;;;24.40;48.32
19114;BME280;9689;51.052;13.772;2023-09-07T10:08:54;101028.59;;;24.52;47.97
19114;BME280;9689;51.052;13.772;2023-09-07T10:14:01;101029.91;;;24.59;47.50
19114;BME280;9689;51.052;13.772;2023-09-07T10:19:13;101015.63;;;24.73;46.63
19114;BME280;9689;51.052;13.772;2023-09-07T10:24:24;101012.44;;;24.93;46.75
19114;BME280;9689;51.052;13.772;2023-09-07T10:29:27;101009.84;;;25.06;44.02
19114;BME280;9689;51.052;13.772;2023-09-07T10:34:35;101009.94;;;25.17;43.58
19114;BME280;9689;51.052;13.772;2023-09-07T10:39:38;101003.00;;;25.27;42.77
19114;BME280;9689;51.052;13.772;2023-09-07T10:44:41;100998.81;;;25.49;42.33
19114;BME280;9689;51.052;13.772;2023-09-07T10:49:42;100993.00;;;25.68;41.83
19114;BME280;9689;51.052;13.772;2023-09-07T10:54:43;100999.09;;;25.82;40.86
19114;BME280;9689;51.052;13.772;2023-09-07T10:59:45;100991.81;;;25.84;39.69
19114;BME280;9689;51.052;13.772;2023-09-07T11:04:46;100993.94;;;25.92;38.35
19114;BME280;9689;51.052;13.772;2023-09-07T11:09:51;100990.22;;;26.06;37.93
19114;BME280;9689;51.052;13.772;2023-09-07T11:14:53;100984.13;;;26.16;37.69
19114;BME280;9689;51.052;13.772;2023-09-07T11:19:55;100985.56;;;26.20;37.42
19114;BME280;9689;51.052;13.772;2023-09-07T11:24:56;100986.94;;;26.26;38.03
19114;BME280;9689;51.052;13.772;2023-09-07T11:29:58;100987.53;;;26.42;37.78
19114;BME280;9689;51.052;13.772;2023-09-07T11:35:00;100975.91;;;26.55;37.28
19114;BME280;9689;51.052;13.772;2023-09-07T11:40:01;100968.03;;;26.75;38.73
19114;BME280;9689;51.052;13.772;2023-09-07T11:45:12;100967.09;;;26.76;37.65
19114;BME280;9689;51.052;13.772;2023-09-07T11:50:13;100963.72;;;26.86;37.61
19114;BME280;9689;51.052;13.772;2023-09-07T11:55:14;100967.66;;;27.04;38.64
19114;BME280;9689;51.052;13.772;2023-09-07T12:00:17;100958.28;;;27.10;38.04
19114;BME280;9689;51.052;13.772;2023-09-07T12:05:18;100960.59;;;27.14;38.85
19114;BME280;9689;51.052;13.772;2023-09-07T12:10:19;100949.16;;;27.23;38.64
19114;BME280;9689;51.052;13.772;2023-09-07T12:15:21;100957.44;;;27.31;38.46
19114;BME280;9689;51.052;13.772;2023-09-07T12:20:22;100936.50;;;27.48;37.57
19114;BME280;9689;51.052;13.772;2023-09-07T12:25:29;100945.84;;;27.65;37.57
19114;BME280;9689;51.052;13.772;2023-09-07T12:30:33;100934.91;;;27.68;36.51
19114;BME280;9689;51.052;13.772;2023-09-07T12:35:34;100931.19;;;27.80;37.29
19114;BME280;9689;51.052;13.772;2023-09-07T12:40:34;100925.75;;;27.81;36.89
19114;BME280;9689;51.052;13.772;2023-09-07T12:45:37;100922.03;;;27.94;36.77
19114;BME280;9689;51.052;13.772;2023-09-07T12:50:42;100920.28;;;28.04;36.42
19114;BME280;9689;51.052;13.772;2023-09-07T12:55:43;100919.22;;;28.06;35.85
19114;BME280;9689;51.052;13.772;2023-09-07T13:00:46;100913.72;;;28.08;34.90
19114;BME280;9689;51.052;13.772;2023-09-07T13:05:48;100908.78;;;28.13;34.69
19114;BME280;9689;51.052;13.772;2023-09-07T13:10:49;100905.09;;;28.25;34.81
19114;BME280;9689;51.052;13.772;2023-09-07T13:15:51;100894.41;;;28.14;34.21
19114;BME280;9689;51.052;13.772;2023-09-07T13:20:52;100897.41;;;28.32;34.20
19114;BME280;9689;51.052;13.772;2023-09-07T13:25:59;100889.03;;;28.46;34.13
19114;BME280;9689;51.052;13.772;2023-09-07T13:31:02;100883.34;;;28.39;34.14
19114;BME280;9689;51.052;13.772;2023-09-07T13:36:03;100878.91;;;28.50;34.49
19114;BME280;9689;51.052;13.772;2023-09-07T13:41:04;100879.88;;;28.49;34.13
19114;BME280;9689;51.052;13.772;2023-09-07T13:46:07;100878.50;;;28.54;34.01
19114;BME280;9689;51.052;13.772;2023-09-07T13:51:08;100888.00;;;28.58;33.62
19114;BME280;9689;51.052;13.772;2023-09-07T13:56:09;100879.75;;;28.50;33.70
19114;BME280;9689;51.052;13.772;2023-09-07T14:01:11;100879.22;;;28.56;33.23
19114;BME280;9689;51.052;13.772;2023-09-07T14:06:12;100868.91;;;28.52;32.87
19114;BME280;9689;51.052;13.772;2023-09-07T14:11:13;100881.94;;;28.66;33.16
19114;BME280;9689;51.052;13.772;2023-09-07T14:16:15;100878.34;;;28.77;31.40
19114;BME280;9689;51.052;13.772;2023-09-07T14:21:17;100872.88;;;28.88;30.79
19114;BME280;9689;51.052;13.772;2023-09-07T14:26:18;100872.72;;;28.80;31.58
19114;BME280;9689;51.052;13.772;2023-09-07T14:31:20;100861.00;;;28.81;31.43
19114;BME280;9689;51.052;13.772;2023-09-07T14:36:21;100861.84;;;28.81;31.80
19114;BME280;9689;51.052;13.772;2023-09-07T14:41:22;100866.53;;;28.89;32.99
19114;BME280;9689;51.052;13.772;2023-09-07T14:46:24;100867.81;;;28.85;32.41
19114;BME280;9689;51.052;13.772;2023-09-07T14:51:26;100865.56;;;28.90;32.55
19114;BME280;9689;51.052;13.772;2023-09-07T14:56:27;100856.59;;;28.80;31.43
19114;BME280;9689;51.052;13.772;2023-09-07T15:01:30;100858.03;;;28.84;31.44
19114;BME280;9689;51.052;13.772;2023-09-07T15:06:31;100850.25;;;28.81;30.93
19114;BME280;9689;51.052;13.772;2023-09-07T15:11:33;100845.03;;;28.79;30.65
19114;BME280;9689;51.052;13.772;2023-09-07T15:16:35;100845.34;;;28.86;30.87
19114;BME280;9689;51.052;13.772;2023-09-07T15:21:36;100838.81;;;28.79;31.56
19114;BME280;9689;51.052;13.772;2023-09-07T15:26:41;100841.28;;;28.61;32.22
19114;BME280;9689;51.052;13.772;2023-09-07T15:31:44;100844.72;;;28.72;32.01
19114;BME280;9689;51.052;13.772;2023-09-07T15:36:44;100833.25;;;28.61;32.98
19114;BME280;9689;51.052;13.772;2023-09-07T15:41:45;100842.13;;;28.61;31.32
19114;BME280;9689;51.052;13.772;2023-09-07T15:46:49;100834.75;;;28.54;33.18
19114;BME280;9689;51.052;13.772;2023-09-07T15:51:50;100843.19;;;28.49;32.71
19114;BME280;9689;51.052;13.772;2023-09-07T15:56:52;100835.81;;;28.41;32.06
19114;BME280;9689;51.052;13.772;2023-09-07T16:02:03;100835.81;;;28.41;31.71
19114;BME280;9689;51.052;13.772;2023-09-07T16:07:05;100834.19;;;28.50;32.49
19114;BME280;9689;51.052;13.772;2023-09-07T16:12:07;100832.63;;;28.57;31.84
19114;BME280;9689;51.052;13.772;2023-09-07T16:17:09;100842.22;;;28.50;34.52
19114;BME280;9689;51.052;13.772;2023-09-07T16:22:10;100840.16;;;28.33;36.63
19114;BME280;9689;51.052;13.772;2023-09-07T16:27:11;100839.31;;;28.21;37.93
19114;BME280;9689;51.052;13.772;2023-09-07T16:32:13;100844.16;;;28.27;37.33
19114;BME280;9689;51.052;13.772;2023-09-07T16:37:16;100838.47;;;28.21;37.49
19114;BME280;9689;51.052;13.772;2023-09-07T16:42:17;100830.66;;;28.29;37.61
19114;BME280;9689;51.052;13.772;2023-09-07T16:47:20;100837.75;;;28.39;37.08
19114;BME280;9689;51.052;13.772;2023-09-07T16:52:21;100837.25;;;28.46;37.57
19114;BME280;9689;51.052;13.772;2023-09-07T16:57:21;100838.03;;;29.38;35.65
19114;BME280;9689;51.052;13.772;2023-09-07T17:02:24;100831.38;;;29.32;35.82
19114;BME280;9689;51.052;13.772;2023-09-07T17:07:26;100841.16;;;28.21;38.78
19114;BME280;9689;51.052;13.772;2023-09-07T17:12:26;100847.09;;;27.17;41.09
19114;BME280;9689;51.052;13.772;2023-09-07T17:17:29;100842.50;;;26.52;42.81
19114;BME280;9689;51.052;13.772;2023-09-07T17:22:30;100840.13;;;25.89;44.31
19114;BME280;9689;51.052;13.772;2023-09-07T17:27:31;100852.81;;;25.38;45.50
19114;BME280;9689;51.052;13.772;2023-09-07T17:32:33;100852.81;;;24.89;46.80
19114;BME280;9689;51.052;13.772;2023-09-07T17:37:34;100850.78;;;24.67;47.56
19114;BME280;9689;51.052;13.772;2023-09-07T17:42:35;100850.44;;;24.20;48.79
19114;BME280;9689;51.052;13.772;2023-09-07T17:47:37;100854.56;;;23.99;49.15
19114;BME280;9689;51.052;13.772;2023-09-07T17:52:38;100857.06;;;23.61;50.32
19114;BME280;9689;51.052;13.772;2023-09-07T17:57:39;100860.91;;;23.42;51.01
19114;BME280;9689;51.052;13.772;2023-09-07T18:02:41;100871.28;;;23.33;51.56
19114;BME280;9689;51.052;13.772;2023-09-07T18:07:42;100879.50;;;23.01;52.54
19114;BME280;9689;51.052;13.772;2023-09-07T18:12:43;100879.19;;;22.77;53.71
19114;BME280;9689;51.052;13.772;2023-09-07T18:17:45;100881.63;;;22.66;54.10
19114;BME280;9689;51.052;13.772;2023-09-07T18:22:45;100882.50;;;22.52;54.32
19114;BME280;9689;51.052;13.772;2023-09-07T18:27:46;100889.38;;;22.41;54.69
19114;BME280;9689;51.052;13.772;2023-09-07T18:32:49;100889.72;;;22.20;55.45
19114;BME280;9689;51.052;13.772;2023-09-07T18:37:50;100890.25;;;22.11;56.00
19114;BME280;9689;51.052;13.772;2023-09-07T18:42:51;100895.75;;;22.08;55.89
19114;BME280;9689;51.052;13.772;2023-09-07T18:47:57;100896.25;;;21.99;56.31
19114;BME280;9689;51.052;13.772;2023-09-07T18:52:58;100896.53;;;21.94;56.46
19114;BME280;9689;51.052;13.772;2023-09-07T18:58:00;100896.09;;;21.86;56.78
19114;BME280;9689;51.052;13.772;2023-09-07T19:03:03;100894.41;;;21.85;56.28
19114;BME280;9689;51.052;13.772;2023-09-07T19:08:04;100902.88;;;21.76;57.06
19114;BME280;9689;51.052;13.772;2023-09-07T19:13:05;100906.16;;;21.65;57.52
19114;BME280;9689;51.052;13.772;2023-09-07T19:18:07;100911.38;;;21.51;57.66
19114;BME280;9689;51.052;13.772;2023-09-07T19:23:08;100913.94;;;21.53;57.69
19114;BME280;9689;51.052;13.772;2023-09-07T19:28:10;100913.16;;;21.51;57.55
19114;BME280;9689;51.052;13.772;2023-09-07T19:33:12;100925.13;;;21.42;57.63
19114;BME280;9689;51.052;13.772;2023-09-07T19:38:13;100923.09;;;21.31;58.09
19114;BME280;9689;51.052;13.772;2023-09-07T19:43:14;100919.94;;;21.07;58.39
19114;BME280;9689;51.052;13.772;2023-09-07T19:48:16;100918.53;;;21.00;58.54
19114;BME280;9689;51.052;13.772;2023-09-07T19:53:17;100915.06;;;20.82;59.33
19114;BME280;9689;51.052;13.772;2023-09-07T19:58:18;100919.31;;;20.69;59.88
19114;BME280;9689;51.052;13.772;2023-09-07T20:03:20;100919.09;;;20.56;60.56
19114;BME280;9689;51.052;13.772;2023-09-07T20:08:21;100919.72;;;20.44;61.25
19114;BME280;9689;51.052;13.772;2023-09-07T20:13:22;100922.47;;;20.24;62.43
19114;BME280;9689;51.052;13.772;2023-09-07T20:18:25;100923.34;;;20.07;62.98
19114;BME280;9689;51.052;13.772;2023-09-07T20:23:26;100922.13;;;19.95;63.67
19114;BME280;9689;51.052;13.772;2023-09-07T20:28:29;100925.22;;;19.86;63.94
19114;BME280;9689;51.052;13.772;2023-09-07T20:33:31;100928.69;;;20.05;64.40
19114;BME280;9689;51.052;13.772;2023-09-07T20:38:33;100922.59;;;19.86;64.67
19114;BME280;9689;51.052;13.772;2023-09-07T20:43:34;100932.69;;;19.78;65.39
19114;BME280;9689;51.052;13.772;2023-09-07T20:48:36;100930.56;;;19.67;66.20
19114;BME280;9689;51.052;13.772;2023-09-07T20:53:37;100936.28;;;19.58;66.75
19114;BME280;9689;51.052;13.772;2023-09-07T20:58:39;100932.25;;;19.49;67.42
19114;BME280;9689;51.052;13.772;2023-09-07T21:03:42;100938.47;;;19.30;67.93
19114;BME280;9689;51.052;13.772;2023-09-07T21:08:43;100924.25;;;19.13;69.00
19114;BME280;9689;51.052;13.772;2023-09-07T21:13:44;100933.13;;;19.11;68.72
19114;BME280;9689;51.052;13.772;2023-09-07T21:18:47;100925.69;;;19.20;68.76
19114;BME280;9689;51.052;13.772;2023-09-07T21:23:48;100930.72;;;19.06;69.27
19114;BME280;9689;51.052;13.772;2023-09-07T21:28:49;100933.97;;;18.92;69.85
19114;BME280;9689;51.052;13.772;2023-09-07T21:33:52;100928.75;;;18.91;70.43
19114;BME280;9689;51.052;13.772;2023-09-07T21:38:52;100937.31;;;18.77;71.51
19114;BME280;9689;51.052;13.772;2023-09-07T21:43:53;100943.72;;;18.72;71.63
19114;BME280;9689;51.052;13.772;2023-09-07T21:48:55;100937.56;;;18.71;72.01
19114;BME280;9689;51.052;13.772;2023-09-07T21:53:57;100941.22;;;18.69;71.96
19114;BME280;9689;51.052;13.772;2023-09-07T21:59:00;100939.34;;;18.71;72.37
19114;BME280;9689;51.052;13.772;2023-09-07T22:04:02;100934.25;;;18.66;72.23
19114;BME280;9689;51.052;13.772;2023-09-07T22:09:04;100942.47;;;18.58;72.91
19114;BME280;9689;51.052;13.772;2023-09-07T22:14:04;100925.31;;;18.48;73.33
19114;BME280;9689;51.052;13.772;2023-09-07T22:19:07;100919.78;;;18.34;74.07
19114;BME280;9689;51.052;13.772;2023-09-07T22:24:08;100917.31;;;18.09;74.90
19114;BME280;9689;51.052;13.772;2023-09-07T22:29:10;100923.38;;;17.89;76.45
19114;BME280;9689;51.052;13.772;2023-09-07T22:34:12;100927.50;;;17.74;77.35
19114;BME280;9689;51.052;13.772;2023-09-07T22:39:13;100924.72;;;17.56;78.43
19114;BME280;9689;51.052;13.772;2023-09-07T22:44:14;100933.84;;;17.45;78.77
19114;BME280;9689;51.052;13.772;2023-09-07T22:49:16;100926.81;;;17.46;79.10
19114;BME280;9689;51.052;13.772;2023-09-07T22:54:19;100932.50;;;17.35;79.68
19114;BME280;9689;51.052;13.772;2023-09-07T22:59:21;100926.91;;;17.21;80.61
19114;BME280;9689;51.052;13.772;2023-09-07T23:04:23;100920.72;;;17.22;80.90
19114;BME280;9689;51.052;13.772;2023-09-07T23:09:24;100916.31;;;17.22;81.01
19114;BME280;9689;51.052;13.772;2023-09-07T23:14:29;100916.72;;;17.12;81.28
19114;BME280;9689;51.052;13.772;2023-09-07T23:19:32;100912.91;;;17.19;80.52
19114;BME280;9689;51.052;13.772;2023-09-07T23:24:32;100916.66;;;17.13;81.28
19114;BME280;9689;51.052;13.772;2023-09-07T23:29:33;100911.13;;;17.19;80.44
19114;BME280;9689;51.052;13.772;2023-09-07T23:34:35;100911.84;;;17.24;79.24
19114;BME280;9689;51.052;13.772;2023-09-07T23:39:36;100917.22;;;17.21;79.18
19114;BME280;9689;51.052;13.772;2023-09-07T23:44:37;100917.44;;;17.15;79.50
19114;BME280;9689;51.052;13.772;2023-09-07T23:49:39;100925.06;;;17.00;79.81
19114;BME280;9689;51.052;13.772;2023-09-07T23:54:40;100917.25;;;16.73;81.14
19114;BME280;9689;51.052;13.772;2023-09-07T23:59:41;100919.16;;;16.68;81.20
